Главная страница
METAR-TAF:

METAR-TAF

Аэропорты :

Quakertown Airport

Quakertown, Пенсильвания, США

широта: 40-26-06N, долгота: 075-22-54W, высота над уровнем моря: 160 м

Текущие метеонаблюдения

Эта сводка был подготовлена 15 минут назад, в 14:15 UTC
Штиль
Температура 28°C
Влажность 66%
Давление 1020 hPa
Видимость: 16.1 км
ясное небо

METAR: KUKT 161415Z AUTO 00000KT 10SM CLR 28/21 A3011 RMK A01

Время: 10:30 (14:30 UTC)


TAF: отсутствует

Метеонаблюдения и прогнозы для более 4000 аэропортов (сводки METAR и TAF).

Имеющиеся станции представлены на карте желтыми и красными точками.

Чтобы увидеть название станции, наведите на нее мышь.

Затем щелкните, чтобы увидеть метеонаблюдения и метеопрогнозы.

Управление картой: чтобы увеличить масштаб, щелкните зеленые кнопки с черным крестиком; чтобы уменьшить масштаб, щелкните зеленую кнопку с тире; для просмотра соседних карт щелкайте зеленые стрелки.


METAR-TAF: